sensor_id;sensor_type;location;lat;lon;timestamp;temperature;humidity
74901;DHT22;63461;51.416;6.758;2023-04-26T02:42:28;5.60;99.90
74901;DHT22;63461;51.416;6.758;2023-04-26T02:44:54;5.60;99.90
74901;DHT22;63461;51.416;6.758;2023-04-26T02:47:29;5.60;99.90
74901;DHT22;63461;51.416;6.758;2023-04-26T02:49:55;5.60;99.90
74901;DHT22;63461;51.416;6.758;2023-04-26T02:52:36;5.60;99.90
74901;DHT22;63461;51.416;6.758;2023-04-26T02:55:48;5.50;99.90
74901;DHT22;63461;51.416;6.758;2023-04-26T02:58:58;5.40;99.90
74901;DHT22;63461;51.416;6.758;2023-04-26T03:01:25;5.50;99.90
74901;DHT22;63461;51.416;6.758;2023-04-26T03:04:14;5.50;99.90
74901;DHT22;63461;51.416;6.758;2023-04-26T03:07:26;5.50;99.90
74901;DHT22;63461;51.416;6.758;2023-04-26T03:10:00;5.50;99.90
74901;DHT22;63461;51.416;6.758;2023-04-26T03:21:15;5.40;99.90
74901;DHT22;63461;51.416;6.758;2023-04-26T03:24:10;5.40;99.90
74901;DHT22;63461;51.416;6.758;2023-04-26T03:30:11;5.40;99.90
74901;DHT22;63461;51.416;6.758;2023-04-26T03:33:09;5.40;99.90
74901;DHT22;63461;51.416;6.758;2023-04-26T03:36:14;5.40;99.90
74901;DHT22;63461;51.416;6.758;2023-04-26T03:42:50;5.30;99.90
74901;DHT22;63461;51.416;6.758;2023-04-26T03:46:17;5.30;99.90
74901;DHT22;63461;51.416;6.758;2023-04-26T03:52:29;5.30;99.90
74901;DHT22;63461;51.416;6.758;2023-04-26T03:55:49;5.30;99.90
74901;DHT22;63461;51.416;6.758;2023-04-26T03:58:36;5.20;99.90
74901;DHT22;63461;51.416;6.758;2023-04-26T04:01:12;5.20;99.90
74901;DHT22;63461;51.416;6.758;2023-04-26T04:03:39;5.20;99.90
74901;DHT22;63461;51.416;6.758;2023-04-26T04:06:06;5.10;99.90
74901;DHT22;63461;51.416;6.758;2023-04-26T04:17:56;4.90;99.90
74901;DHT22;63461;51.416;6.758;2023-04-26T04:25:25;4.90;99.90
74901;DHT22;63461;51.416;6.758;2023-04-26T04:33:04;4.90;99.90
74901;DHT22;63461;51.416;6.758;2023-04-26T04:43:19;5.00;99.90
74901;DHT22;63461;51.416;6.758;2023-04-26T04:47:41;4.90;99.90
74901;DHT22;63461;51.416;6.758;2023-04-26T05:13:40;5.20;99.90
74901;DHT22;63461;51.416;6.758;2023-04-26T05:16:06;5.10;99.90
74901;DHT22;63461;51.416;6.758;2023-04-26T05:18:32;5.10;99.90
74901;DHT22;63461;51.416;6.758;2023-04-26T05:20:58;5.00;99.90
74901;DHT22;63461;51.416;6.758;2023-04-26T05:23:25;5.00;99.90
74901;DHT22;63461;51.416;6.758;2023-04-26T05:25:51;5.10;99.90
74901;DHT22;63461;51.416;6.758;2023-04-26T05:28:37;5.20;99.90
74901;DHT22;63461;51.416;6.758;2023-04-26T05:31:25;5.10;99.90
74901;DHT22;63461;51.416;6.758;2023-04-26T05:34:20;5.30;99.90
74901;DHT22;63461;51.416;6.758;2023-04-26T05:36:49;5.30;99.90
74901;DHT22;63461;51.416;6.758;2023-04-26T05:39:16;5.40;99.90
74901;DHT22;63461;51.416;6.758;2023-04-26T05:41:43;5.40;99.90
74901;DHT22;63461;51.416;6.758;2023-04-26T05:44:09;5.50;99.90
74901;DHT22;63461;51.416;6.758;2023-04-26T05:46:35;5.50;99.90
74901;DHT22;63461;51.416;6.758;2023-04-26T05:49:01;5.50;99.90
74901;DHT22;63461;51.416;6.758;2023-04-26T05:51:27;5.60;99.90
74901;DHT22;63461;51.416;6.758;2023-04-26T05:53:53;5.60;99.90
74901;DHT22;63461;51.416;6.758;2023-04-26T05:56:44;5.70;99.90
74901;DHT22;63461;51.416;6.758;2023-04-26T05:59:10;5.80;99.90
74901;DHT22;63461;51.416;6.758;2023-04-26T06:01:38;5.80;99.90
74901;DHT22;63461;51.416;6.758;2023-04-26T06:04:04;5.80;99.90
74901;DHT22;63461;51.416;6.758;2023-04-26T06:06:38;5.90;99.90
74901;DHT22;63461;51.416;6.758;2023-04-26T06:09:05;6.00;99.90
74901;DHT22;63461;51.416;6.758;2023-04-26T06:11:31;6.00;99.90
74901;DHT22;63461;51.416;6.758;2023-04-26T06:13:57;6.10;99.90
74901;DHT22;63461;51.416;6.758;2023-04-26T06:16:24;6.10;99.90
74901;DHT22;63461;51.416;6.758;2023-04-26T06:18:50;6.20;99.90
74901;DHT22;63461;51.416;6.758;2023-04-26T06:21:15;6.20;99.90
74901;DHT22;63461;51.416;6.758;2023-04-26T06:23:41;6.30;99.90
74901;DHT22;63461;51.416;6.758;2023-04-26T06:26:07;6.30;99.90
74901;DHT22;63461;51.416;6.758;2023-04-26T06:28:33;6.40;99.90
74901;DHT22;63461;51.416;6.758;2023-04-26T06:30:59;6.50;99.90
74901;DHT22;63461;51.416;6.758;2023-04-26T06:33:25;6.70;99.90
74901;DHT22;63461;51.416;6.758;2023-04-26T06:35:51;6.70;99.90
74901;DHT22;63461;51.416;6.758;2023-04-26T06:38:17;6.80;99.90
74901;DHT22;63461;51.416;6.758;2023-04-26T06:40:43;6.90;99.90
74901;DHT22;63461;51.416;6.758;2023-04-26T06:43:09;6.90;99.90
74901;DHT22;63461;51.416;6.758;2023-04-26T06:45:54;7.00;99.90
74901;DHT22;63461;51.416;6.758;2023-04-26T06:48:20;6.90;99.90
74901;DHT22;63461;51.416;6.758;2023-04-26T06:50:46;7.00;99.90
74901;DHT22;63461;51.416;6.758;2023-04-26T06:53:12;7.00;99.90
74901;DHT22;63461;51.416;6.758;2023-04-26T06:55:38;6.90;99.90
74901;DHT22;63461;51.416;6.758;2023-04-26T06:58:04;6.90;99.90
74901;DHT22;63461;51.416;6.758;2023-04-26T07:00:30;6.90;99.90
74901;DHT22;63461;51.416;6.758;2023-04-26T07:02:55;7.00;99.90
74901;DHT22;63461;51.416;6.758;2023-04-26T07:05:21;7.10;99.90
74901;DHT22;63461;51.416;6.758;2023-04-26T07:07:47;7.20;99.90
74901;DHT22;63461;51.416;6.758;2023-04-26T07:10:14;7.30;99.90
74901;DHT22;63461;51.416;6.758;2023-04-26T07:12:40;7.30;99.90
74901;DHT22;63461;51.416;6.758;2023-04-26T07:15:06;7.30;99.90
74901;DHT22;63461;51.416;6.758;2023-04-26T07:17:32;7.30;99.90
74901;DHT22;63461;51.416;6.758;2023-04-26T07:19:58;7.40;99.90
74901;DHT22;63461;51.416;6.758;2023-04-26T07:22:24;7.50;99.90
74901;DHT22;63461;51.416;6.758;2023-04-26T07:24:50;7.60;99.90
74901;DHT22;63461;51.416;6.758;2023-04-26T07:27:15;7.70;99.90
74901;DHT22;63461;51.416;6.758;2023-04-26T07:29:41;7.90;99.90
74901;DHT22;63461;51.416;6.758;2023-04-26T07:32:07;7.90;99.90
74901;DHT22;63461;51.416;6.758;2023-04-26T07:34:33;8.10;99.90
74901;DHT22;63461;51.416;6.758;2023-04-26T07:37:10;8.20;99.90
74901;DHT22;63461;51.416;6.758;2023-04-26T07:39:36;8.30;99.90
74901;DHT22;63461;51.416;6.758;2023-04-26T07:42:02;8.40;99.90
74901;DHT22;63461;51.416;6.758;2023-04-26T07:44:28;8.40;99.90
74901;DHT22;63461;51.416;6.758;2023-04-26T07:46:54;8.40;99.90
74901;DHT22;63461;51.416;6.758;2023-04-26T07:49:20;8.40;99.90
74901;DHT22;63461;51.416;6.758;2023-04-26T07:51:47;8.50;99.90
74901;DHT22;63461;51.416;6.758;2023-04-26T07:54:13;8.60;99.90
74901;DHT22;63461;51.416;6.758;2023-04-26T07:56:39;8.70;99.90
74901;DHT22;63461;51.416;6.758;2023-04-26T07:59:05;8.70;99.90
74901;DHT22;63461;51.416;6.758;2023-04-26T08:01:30;8.80;99.90
74901;DHT22;63461;51.416;6.758;2023-04-26T08:03:56;9.00;99.90
74901;DHT22;63461;51.416;6.758;2023-04-26T08:06:22;9.20;99.90
74901;DHT22;63461;51.416;6.758;2023-04-26T08:08:49;9.20;99.90
74901;DHT22;63461;51.416;6.758;2023-04-26T08:11:17;9.30;99.90
74901;DHT22;63461;51.416;6.758;2023-04-26T08:13:43;9.20;99.90
74901;DHT22;63461;51.416;6.758;2023-04-26T08:16:09;9.10;99.90
74901;DHT22;63461;51.416;6.758;2023-04-26T08:18:35;9.10;99.90
74901;DHT22;63461;51.416;6.758;2023-04-26T08:21:01;9.00;99.90
74901;DHT22;63461;51.416;6.758;2023-04-26T08:23:26;9.10;99.90
74901;DHT22;63461;51.416;6.758;2023-04-26T08:25:53;9.20;99.90
74901;DHT22;63461;51.416;6.758;2023-04-26T08:28:19;9.40;99.90
74901;DHT22;63461;51.416;6.758;2023-04-26T08:30:44;9.30;99.90
74901;DHT22;63461;51.416;6.758;2023-04-26T08:33:10;9.40;99.90
74901;DHT22;63461;51.416;6.758;2023-04-26T08:35:43;9.40;99.90
74901;DHT22;63461;51.416;6.758;2023-04-26T08:38:12;9.30;99.90
74901;DHT22;63461;51.416;6.758;2023-04-26T08:40:40;9.40;99.90
74901;DHT22;63461;51.416;6.758;2023-04-26T08:43:28;9.50;99.90
74901;DHT22;63461;51.416;6.758;2023-04-26T08:45:54;9.70;99.90
74901;DHT22;63461;51.416;6.758;2023-04-26T08:48:22;9.70;99.90
74901;DHT22;63461;51.416;6.758;2023-04-26T08:50:49;9.90;99.90
74901;DHT22;63461;51.416;6.758;2023-04-26T08:53:23;9.80;99.90
74901;DHT22;63461;51.416;6.758;2023-04-26T08:55:50;9.70;99.90
74901;DHT22;63461;51.416;6.758;2023-04-26T08:58:19;9.70;99.90
74901;DHT22;63461;51.416;6.758;2023-04-26T09:00:51;9.90;99.90
74901;DHT22;63461;51.416;6.758;2023-04-26T09:03:22;9.90;99.90
74901;DHT22;63461;51.416;6.758;2023-04-26T09:05:51;9.80;99.90
74901;DHT22;63461;51.416;6.758;2023-04-26T09:08:18;9.70;99.90
74901;DHT22;63461;51.416;6.758;2023-04-26T09:10:46;9.90;99.90
74901;DHT22;63461;51.416;6.758;2023-04-26T09:13:15;10.00;99.90
74901;DHT22;63461;51.416;6.758;2023-04-26T09:15:41;9.90;99.90
74901;DHT22;63461;51.416;6.758;2023-04-26T09:18:20;10.00;99.90
74901;DHT22;63461;51.416;6.758;2023-04-26T09:23:32;10.00;99.90
74901;DHT22;63461;51.416;6.758;2023-04-26T09:28:43;10.20;99.90
74901;DHT22;63461;51.416;6.758;2023-04-26T09:31:49;9.90;99.90
74901;DHT22;63461;51.416;6.758;2023-04-26T09:34:22;9.90;99.90
74901;DHT22;63461;51.416;6.758;2023-04-26T09:36:53;9.80;99.90
74901;DHT22;63461;51.416;6.758;2023-04-26T09:39:29;9.60;99.90
74901;DHT22;63461;51.416;6.758;2023-04-26T09:41:59;9.50;99.90
74901;DHT22;63461;51.416;6.758;2023-04-26T09:44:25;9.80;99.90
74901;DHT22;63461;51.416;6.758;2023-04-26T09:47:23;9.90;99.90
74901;DHT22;63461;51.416;6.758;2023-04-26T09:50:03;9.70;99.90
74901;DHT22;63461;51.416;6.758;2023-04-26T09:52:44;10.00;99.90
74901;DHT22;63461;51.416;6.758;2023-04-26T09:55:10;10.40;99.90
74901;DHT22;63461;51.416;6.758;2023-04-26T09:57:50;10.50;99.80
74901;DHT22;63461;51.416;6.758;2023-04-26T10:00:24;10.50;97.80
74901;DHT22;63461;51.416;6.758;2023-04-26T10:02:52;10.60;98.20
74901;DHT22;63461;51.416;6.758;2023-04-26T10:05:22;10.60;98.40
74901;DHT22;63461;51.416;6.758;2023-04-26T10:07:53;10.50;97.20
74901;DHT22;63461;51.416;6.758;2023-04-26T10:10:22;10.40;98.30
74901;DHT22;63461;51.416;6.758;2023-04-26T10:12:51;10.50;99.50
74901;DHT22;63461;51.416;6.758;2023-04-26T10:15:20;10.60;99.70
74901;DHT22;63461;51.416;6.758;2023-04-26T10:17:53;10.70;99.30
74901;DHT22;63461;51.416;6.758;2023-04-26T10:20:25;10.80;99.20
74901;DHT22;63461;51.416;6.758;2023-04-26T10:22:56;11.00;98.50
74901;DHT22;63461;51.416;6.758;2023-04-26T10:25:37;10.80;97.10
74901;DHT22;63461;51.416;6.758;2023-04-26T10:28:03;10.50;96.30
74901;DHT22;63461;51.416;6.758;2023-04-26T10:30:29;10.70;96.70
74901;DHT22;63461;51.416;6.758;2023-04-26T10:33:22;10.90;96.10
74901;DHT22;63461;51.416;6.758;2023-04-26T10:38:34;10.90;95.10
74901;DHT22;63461;51.416;6.758;2023-04-26T10:47:27;11.20;92.90
74901;DHT22;63461;51.416;6.758;2023-04-26T10:50:07;11.40;92.80
74901;DHT22;63461;51.416;6.758;2023-04-26T10:55:41;11.20;96.20
74901;DHT22;63461;51.416;6.758;2023-04-26T10:58:33;11.20;95.60
74901;DHT22;63461;51.416;6.758;2023-04-26T11:01:15;11.00;95.60
74901;DHT22;63461;51.416;6.758;2023-04-26T11:07:03;11.10;95.80
74901;DHT22;63461;51.416;6.758;2023-04-26T11:09:38;11.20;94.50
74901;DHT22;63461;51.416;6.758;2023-04-26T11:12:14;11.10;94.80
74901;DHT22;63461;51.416;6.758;2023-04-26T11:14:46;11.20;94.00
74901;DHT22;63461;51.416;6.758;2023-04-26T11:17:12;11.30;92.80
74901;DHT22;63461;51.416;6.758;2023-04-26T11:20:14;11.50;92.50
74901;DHT22;63461;51.416;6.758;2023-04-26T11:22:52;11.50;91.60
74901;DHT22;63461;51.416;6.758;2023-04-26T11:25:18;11.60;91.50
74901;DHT22;63461;51.416;6.758;2023-04-26T11:27:46;11.50;91.50
74901;DHT22;63461;51.416;6.758;2023-04-26T11:30:42;11.50;92.40
74901;DHT22;63461;51.416;6.758;2023-04-26T11:33:21;11.40;92.00
74901;DHT22;63461;51.416;6.758;2023-04-26T11:35:55;11.40;92.50
74901;DHT22;63461;51.416;6.758;2023-04-26T11:38:26;11.30;92.60
74901;DHT22;63461;51.416;6.758;2023-04-26T11:41:01;11.40;91.30
74901;DHT22;63461;51.416;6.758;2023-04-26T11:43:35;11.30;90.00
74901;DHT22;63461;51.416;6.758;2023-04-26T11:46:06;11.40;90.20
74901;DHT22;63461;51.416;6.758;2023-04-26T11:48:40;11.50;90.60
74901;DHT22;63461;51.416;6.758;2023-04-26T11:51:09;11.60;90.40
74901;DHT22;63461;51.416;6.758;2023-04-26T11:53:40;11.70;90.60
74901;DHT22;63461;51.416;6.758;2023-04-26T11:56:21;11.50;90.50
74901;DHT22;63461;51.416;6.758;2023-04-26T11:58:51;11.50;90.70
74901;DHT22;63461;51.416;6.758;2023-04-26T12:08:26;11.70;90.70
74901;DHT22;63461;51.416;6.758;2023-04-26T12:10:52;11.70;91.00
74901;DHT22;63461;51.416;6.758;2023-04-26T12:13:19;11.80;90.60
74901;DHT22;63461;51.416;6.758;2023-04-26T12:15:55;11.90;90.80
74901;DHT22;63461;51.416;6.758;2023-04-26T12:18:33;11.90;90.40
74901;DHT22;63461;51.416;6.758;2023-04-26T12:21:02;11.90;89.70
74901;DHT22;63461;51.416;6.758;2023-04-26T12:23:38;11.90;89.40
74901;DHT22;63461;51.416;6.758;2023-04-26T12:26:41;11.90;88.50
74901;DHT22;63461;51.416;6.758;2023-04-26T12:29:08;11.80;90.10
74901;DHT22;63461;51.416;6.758;2023-04-26T12:31:36;11.60;90.20
74901;DHT22;63461;51.416;6.758;2023-04-26T12:34:31;11.60;90.80
74901;DHT22;63461;51.416;6.758;2023-04-26T12:37:12;11.60;90.80
74901;DHT22;63461;51.416;6.758;2023-04-26T12:40:01;11.50;90.60
74901;DHT22;63461;51.416;6.758;2023-04-26T12:42:28;11.40;90.90
74901;DHT22;63461;51.416;6.758;2023-04-26T12:44:57;11.60;90.40
74901;DHT22;63461;51.416;6.758;2023-04-26T12:47:22;11.70;89.40
74901;DHT22;63461;51.416;6.758;2023-04-26T12:50:25;11.70;87.90
74901;DHT22;63461;51.416;6.758;2023-04-26T12:52:53;11.80;88.10
74901;DHT22;63461;51.416;6.758;2023-04-26T12:55:20;12.00;88.20
74901;DHT22;63461;51.416;6.758;2023-04-26T12:57:54;11.70;87.70
74901;DHT22;63461;51.416;6.758;2023-04-26T13:00:20;11.90;87.30
74901;DHT22;63461;51.416;6.758;2023-04-26T13:02:47;11.90;86.20
74901;DHT22;63461;51.416;6.758;2023-04-26T13:05:15;12.00;87.10
74901;DHT22;63461;51.416;6.758;2023-04-26T13:07:42;12.10;84.50
74901;DHT22;63461;51.416;6.758;2023-04-26T13:10:12;12.00;85.30
74901;DHT22;63461;51.416;6.758;2023-04-26T13:12:40;11.90;85.80
74901;DHT22;63461;51.416;6.758;2023-04-26T13:15:07;11.80;86.80
74901;DHT22;63461;51.416;6.758;2023-04-26T13:17:38;11.90;85.50
74901;DHT22;63461;51.416;6.758;2023-04-26T13:20:07;11.80;86.60
74901;DHT22;63461;51.416;6.758;2023-04-26T13:22:33;11.80;86.50
74901;DHT22;63461;51.416;6.758;2023-04-26T13:24:59;12.00;86.10
74901;DHT22;63461;51.416;6.758;2023-04-26T13:27:25;12.10;84.60
74901;DHT22;63461;51.416;6.758;2023-04-26T13:29:51;12.10;83.40
74901;DHT22;63461;51.416;6.758;2023-04-26T13:32:17;12.20;83.80
74901;DHT22;63461;51.416;6.758;2023-04-26T13:34:43;11.90;86.10
74901;DHT22;63461;51.416;6.758;2023-04-26T13:37:27;12.00;86.20
74901;DHT22;63461;51.416;6.758;2023-04-26T13:39:52;12.10;85.70
74901;DHT22;63461;51.416;6.758;2023-04-26T13:42:19;12.20;85.00
74901;DHT22;63461;51.416;6.758;2023-04-26T13:44:45;12.20;84.30
74901;DHT22;63461;51.416;6.758;2023-04-26T13:47:10;12.10;85.00
74901;DHT22;63461;51.416;6.758;2023-04-26T13:49:38;12.00;84.40
74901;DHT22;63461;51.416;6.758;2023-04-26T13:52:06;12.00;84.10
74901;DHT22;63461;51.416;6.758;2023-04-26T13:54:32;11.90;85.80
74901;DHT22;63461;51.416;6.758;2023-04-26T13:56:57;11.80;84.40
74901;DHT22;63461;51.416;6.758;2023-04-26T13:59:23;11.80;84.90
74901;DHT22;63461;51.416;6.758;2023-04-26T14:01:49;11.90;84.70
74901;DHT22;63461;51.416;6.758;2023-04-26T14:04:17;12.00;84.60
74901;DHT22;63461;51.416;6.758;2023-04-26T14:06:43;12.00;84.20
74901;DHT22;63461;51.416;6.758;2023-04-26T14:09:09;12.10;83.70
74901;DHT22;63461;51.416;6.758;2023-04-26T14:11:45;12.20;84.20
74901;DHT22;63461;51.416;6.758;2023-04-26T14:14:11;12.30;84.70
74901;DHT22;63461;51.416;6.758;2023-04-26T14:16:37;12.20;85.60
74901;DHT22;63461;51.416;6.758;2023-04-26T14:19:02;12.10;84.70
74901;DHT22;63461;51.416;6.758;2023-04-26T14:21:28;12.20;85.10
74901;DHT22;63461;51.416;6.758;2023-04-26T14:23:54;12.00;85.10
74901;DHT22;63461;51.416;6.758;2023-04-26T14:26:26;12.10;85.70
74901;DHT22;63461;51.416;6.758;2023-04-26T14:28:54;11.80;86.00
74901;DHT22;63461;51.416;6.758;2023-04-26T14:31:20;11.80;86.00
74901;DHT22;63461;51.416;6.758;2023-04-26T14:33:47;11.90;85.40
74901;DHT22;63461;51.416;6.758;2023-04-26T14:36:36;11.90;83.80
74901;DHT22;63461;51.416;6.758;2023-04-26T14:39:08;12.00;85.30
74901;DHT22;63461;51.416;6.758;2023-04-26T14:41:34;12.00;85.90
74901;DHT22;63461;51.416;6.758;2023-04-26T14:44:00;12.00;85.00
74901;DHT22;63461;51.416;6.758;2023-04-26T14:46:26;12.10;85.60
74901;DHT22;63461;51.416;6.758;2023-04-26T14:48:54;12.10;83.40
74901;DHT22;63461;51.416;6.758;2023-04-26T14:51:20;12.10;84.00
74901;DHT22;63461;51.416;6.758;2023-04-26T14:53:46;12.20;84.70
74901;DHT22;63461;51.416;6.758;2023-04-26T14:56:15;12.20;84.20
74901;DHT22;63461;51.416;6.758;2023-04-26T14:58:52;12.30;83.30
74901;DHT22;63461;51.416;6.758;2023-04-26T15:01:30;12.10;83.00
74901;DHT22;63461;51.416;6.758;2023-04-26T15:03:59;12.20;82.60
74901;DHT22;63461;51.416;6.758;2023-04-26T15:06:24;12.20;83.00
74901;DHT22;63461;51.416;6.758;2023-04-26T15:08:51;12.20;84.20
74901;DHT22;63461;51.416;6.758;2023-04-26T15:11:17;12.40;82.60
74901;DHT22;63461;51.416;6.758;2023-04-26T15:13:47;12.40;83.50
74901;DHT22;63461;51.416;6.758;2023-04-26T15:16:38;12.30;83.30
74901;DHT22;63461;51.416;6.758;2023-04-26T15:19:13;12.30;82.30
74901;DHT22;63461;51.416;6.758;2023-04-26T15:21:45;12.20;82.60
74901;DHT22;63461;51.416;6.758;2023-04-26T15:24:22;12.20;83.00
74901;DHT22;63461;51.416;6.758;2023-04-26T15:30:14;12.30;83.20
74901;DHT22;63461;51.416;6.758;2023-04-26T15:32:41;12.40;83.30
74901;DHT22;63461;51.416;6.758;2023-04-26T15:35:09;12.40;83.20
74901;DHT22;63461;51.416;6.758;2023-04-26T15:37:45;12.20;81.90
74901;DHT22;63461;51.416;6.758;2023-04-26T15:40:12;12.10;82.40
74901;DHT22;63461;51.416;6.758;2023-04-26T15:42:46;12.20;81.70
74901;DHT22;63461;51.416;6.758;2023-04-26T15:45:13;12.20;82.00
74901;DHT22;63461;51.416;6.758;2023-04-26T15:47:39;12.10;81.60
74901;DHT22;63461;51.416;6.758;2023-04-26T15:50:10;11.80;82.50
74901;DHT22;63461;51.416;6.758;2023-04-26T15:52:39;11.80;82.70
74901;DHT22;63461;51.416;6.758;2023-04-26T15:55:06;11.80;84.00
74901;DHT22;63461;51.416;6.758;2023-04-26T15:57:38;11.70;85.00
74901;DHT22;63461;51.416;6.758;2023-04-26T16:00:11;11.70;85.60
74901;DHT22;63461;51.416;6.758;2023-04-26T16:03:05;11.80;85.80
74901;DHT22;63461;51.416;6.758;2023-04-26T16:05:31;11.70;86.40
74901;DHT22;63461;51.416;6.758;2023-04-26T16:07:57;11.70;86.50
74901;DHT22;63461;51.416;6.758;2023-04-26T16:10:30;11.90;85.90
74901;DHT22;63461;51.416;6.758;2023-04-26T16:13:08;12.00;85.60
74901;DHT22;63461;51.416;6.758;2023-04-26T16:15:34;12.00;84.20
74901;DHT22;63461;51.416;6.758;2023-04-26T16:18:00;12.00;83.50
74901;DHT22;63461;51.416;6.758;2023-04-26T16:20:28;12.10;84.20
74901;DHT22;63461;51.416;6.758;2023-04-26T16:22:56;12.10;84.70
74901;DHT22;63461;51.416;6.758;2023-04-26T16:25:22;11.90;85.30
74901;DHT22;63461;51.416;6.758;2023-04-26T16:27:48;11.90;84.80
74901;DHT22;63461;51.416;6.758;2023-04-26T16:30:14;11.90;85.40
74901;DHT22;63461;51.416;6.758;2023-04-26T16:32:40;11.90;85.00
74901;DHT22;63461;51.416;6.758;2023-04-26T16:35:06;11.90;84.40
74901;DHT22;63461;51.416;6.758;2023-04-26T16:37:33;11.90;83.80
74901;DHT22;63461;51.416;6.758;2023-04-26T16:39:59;11.90;84.90
74901;DHT22;63461;51.416;6.758;2023-04-26T16:42:25;11.60;85.30
74901;DHT22;63461;51.416;6.758;2023-04-26T16:44:54;11.70;85.10
74901;DHT22;63461;51.416;6.758;2023-04-26T16:47:20;11.60;85.30
74901;DHT22;63461;51.416;6.758;2023-04-26T16:49:47;11.60;85.60
74901;DHT22;63461;51.416;6.758;2023-04-26T16:52:15;11.70;85.10
74901;DHT22;63461;51.416;6.758;2023-04-26T16:54:41;11.70;85.50
74901;DHT22;63461;51.416;6.758;2023-04-26T16:57:07;11.60;85.20
74901;DHT22;63461;51.416;6.758;2023-04-26T16:59:34;11.70;85.60
74901;DHT22;63461;51.416;6.758;2023-04-26T17:02:00;11.60;85.50
74901;DHT22;63461;51.416;6.758;2023-04-26T17:04:26;11.60;85.10
74901;DHT22;63461;51.416;6.758;2023-04-26T17:06:55;11.60;85.80
74901;DHT22;63461;51.416;6.758;2023-04-26T17:09:24;11.60;85.30
74901;DHT22;63461;51.416;6.758;2023-04-26T17:16:08;11.60;85.10
74901;DHT22;63461;51.416;6.758;2023-04-26T17:19:25;11.60;84.60
74901;DHT22;63461;51.416;6.758;2023-04-26T17:30:35;11.50;84.40
74901;DHT22;63461;51.416;6.758;2023-04-26T17:37:18;11.50;86.40
74901;DHT22;63461;51.416;6.758;2023-04-26T17:41:09;11.40;86.70
74901;DHT22;63461;51.416;6.758;2023-04-26T17:44:13;11.30;87.00
74901;DHT22;63461;51.416;6.758;2023-04-26T17:46:39;11.30;87.90
74901;DHT22;63461;51.416;6.758;2023-04-26T17:49:21;11.10;88.00
74901;DHT22;63461;51.416;6.758;2023-04-26T17:51:56;11.20;88.30
74901;DHT22;63461;51.416;6.758;2023-04-26T17:54:22;11.10;87.40
74901;DHT22;63461;51.416;6.758;2023-04-26T17:56:55;11.10;88.00
74901;DHT22;63461;51.416;6.758;2023-04-26T18:18:54;10.80;89.00
74901;DHT22;63461;51.416;6.758;2023-04-26T19:30:11;10.00;93.30
74901;DHT22;63461;51.416;6.758;2023-04-26T19:40:06;10.10;93.60
74901;DHT22;63461;51.416;6.758;2023-04-26T19:50:11;10.00;94.40
74901;DHT22;63461;51.416;6.758;2023-04-26T19:53:03;9.90;94.30
74901;DHT22;63461;51.416;6.758;2023-04-26T19:56:08;9.90;94.40
74901;DHT22;63461;51.416;6.758;2023-04-26T20:02:54;10.00;94.60
74901;DHT22;63461;51.416;6.758;2023-04-26T20:05:55;9.90;94.90
74901;DHT22;63461;51.416;6.758;2023-04-26T20:08:26;9.80;95.20
74901;DHT22;63461;51.416;6.758;2023-04-26T20:27:13;9.90;96.00
74901;DHT22;63461;51.416;6.758;2023-04-26T20:33:32;9.80;96.70
74901;DHT22;63461;51.416;6.758;2023-04-26T20:41:10;9.80;96.90
74901;DHT22;63461;51.416;6.758;2023-04-26T20:53:29;9.80;97.40
74901;DHT22;63461;51.416;6.758;2023-04-26T20:58:57;9.80;97.90
74901;DHT22;63461;51.416;6.758;2023-04-26T21:02:01;9.70;97.80
